createdAt,value
2023-01-21T00:00:16.863Z,6.88
2023-01-21T00:02:44.374Z,6.63
2023-01-21T00:05:17.129Z,6.93
2023-01-21T00:07:44.466Z,6.47
2023-01-21T00:10:11.913Z,8.02
2023-01-21T00:12:39.315Z,8.15
2023-01-21T00:15:06.861Z,7.05
2023-01-21T00:17:37.988Z,7.07
2023-01-21T00:20:07.262Z,7.22
2023-01-21T00:22:34.509Z,8.57
2023-01-21T00:25:03.534Z,7.60
2023-01-21T00:27:30.944Z,6.80
2023-01-21T00:29:59.521Z,6.95
2023-01-21T00:32:27.204Z,7.50
2023-01-21T00:34:54.614Z,7.65
2023-01-21T00:37:23.327Z,6.13
2023-01-21T00:39:50.602Z,7.40
2023-01-21T00:42:17.893Z,6.63
2023-01-21T00:44:48.481Z,6.75
2023-01-21T00:47:16.439Z,6.45
2023-01-21T00:49:46.579Z,6.55
2023-01-21T00:52:14.880Z,6.97
2023-01-21T00:54:48.748Z,6.88
2023-01-21T00:57:16.553Z,6.05
2023-01-21T00:59:43.912Z,5.63
2023-01-21T01:02:11.248Z,6.43
2023-01-21T01:04:41.493Z,6.45
2023-01-21T01:07:08.818Z,5.88
2023-01-21T01:09:36.196Z,6.60
2023-01-21T01:12:03.475Z,6.20
2023-01-21T01:14:30.996Z,5.70
2023-01-21T01:16:58.281Z,6.28
2023-01-21T01:19:26.316Z,6.72
2023-01-21T01:21:53.607Z,6.43
2023-01-21T01:24:21.524Z,5.43
2023-01-21T01:26:48.845Z,6.18
2023-01-21T01:29:17.316Z,5.95
2023-01-21T01:31:44.723Z,5.93
2023-01-21T01:34:12.192Z,5.72
2023-01-21T01:36:39.494Z,5.82
2023-01-21T01:39:07.675Z,6.80
2023-01-21T01:41:35.550Z,6.22
2023-01-21T01:44:07.362Z,5.63
2023-01-21T01:46:36.111Z,5.30
2023-01-21T01:49:09.769Z,6.72
2023-01-21T01:51:57.356Z,5.78
2023-01-21T01:54:28.585Z,6.38
2023-01-21T01:56:57.781Z,6.05
2023-01-21T01:59:25.548Z,5.15
2023-01-21T02:01:52.885Z,5.82
2023-01-21T02:04:25.065Z,6.57
2023-01-21T02:06:53.251Z,6.03
2023-01-21T02:09:20.661Z,6.28
2023-01-21T02:11:48.760Z,5.75
2023-01-21T02:14:16.110Z,6.68
2023-01-21T02:16:43.849Z,6.13
2023-01-21T02:19:43.391Z,5.70
2023-01-21T02:22:27.184Z,5.95
2023-01-21T02:25:14.769Z,5.22
2023-01-21T02:28:01.573Z,5.55
2023-01-21T02:30:29.432Z,5.65
2023-01-21T02:33:15.455Z,6.15
2023-01-21T02:35:46.232Z,5.57
2023-01-21T02:38:16.362Z,5.93
2023-01-21T02:41:02.509Z,5.63
2023-01-21T02:43:32.818Z,5.97
2023-01-21T02:46:20.437Z,6.13
2023-01-21T02:48:55.151Z,6.35
2023-01-21T02:51:23.838Z,5.68
2023-01-21T02:53:51.210Z,6.45
2023-01-21T02:56:20.166Z,5.63
2023-01-21T02:58:49.791Z,6.85
2023-01-21T03:01:17.069Z,6.18
2023-01-21T03:03:56.202Z,6.70
2023-01-21T03:06:30.348Z,6.95
2023-01-21T03:09:00.672Z,7.30
2023-01-21T03:11:28.237Z,8.40
2023-01-21T03:14:17.774Z,8.00
2023-01-21T03:16:58.822Z,8.32
2023-01-21T03:19:29.277Z,7.53
2023-01-21T03:21:57.627Z,8.50
2023-01-21T03:24:25.529Z,9.38
2023-01-21T03:26:55.585Z,9.93
2023-01-21T03:29:24.530Z,8.75
2023-01-21T03:31:54.480Z,9.00
2023-01-21T03:34:23.341Z,9.18
2023-01-21T03:36:56.487Z,8.20
2023-01-21T03:39:30.713Z,7.75
2023-01-21T03:42:00.359Z,9.23
2023-01-21T03:44:28.296Z,10.35
2023-01-21T03:47:07.265Z,8.23
2023-01-21T03:49:38.640Z,8.60
2023-01-21T03:52:06.683Z,9.05
2023-01-21T03:54:33.996Z,10.48
2023-01-21T03:57:03.827Z,8.98
2023-01-21T03:59:31.494Z,9.25
2023-01-21T04:01:58.811Z,9.98
2023-01-21T04:04:26.204Z,8.52
2023-01-21T04:06:53.498Z,9.48
2023-01-21T04:09:26.010Z,10.00
2023-01-21T04:11:54.126Z,9.18
2023-01-21T04:14:23.024Z,9.80
2023-01-21T04:16:50.346Z,9.45
2023-01-21T04:19:17.783Z,7.88
2023-01-21T04:21:48.158Z,10.38
2023-01-21T04:24:15.660Z,8.50
2023-01-21T04:26:43.169Z,8.15
2023-01-21T04:29:11.447Z,7.85
2023-01-21T04:31:39.282Z,8.13
2023-01-21T04:34:06.577Z,8.45
2023-01-21T04:36:33.935Z,8.35
2023-01-21T04:39:01.764Z,8.45
2023-01-21T04:41:30.087Z,9.07
2023-01-21T04:43:57.373Z,6.70
2023-01-21T04:46:24.805Z,7.35
2023-01-21T04:48:55.684Z,8.02
2023-01-21T04:51:23.673Z,7.68
2023-01-21T04:53:50.960Z,8.60
2023-01-21T04:56:19.659Z,8.18
2023-01-21T04:58:47.242Z,6.72
2023-01-21T05:01:17.868Z,7.40
2023-01-21T05:03:45.263Z,7.03
2023-01-21T05:06:15.326Z,7.45
2023-01-21T05:08:45.611Z,7.03
2023-01-21T05:11:15.555Z,7.47
2023-01-21T05:13:48.776Z,7.65
2023-01-21T05:16:16.168Z,6.75
2023-01-21T05:18:46.920Z,6.50
2023-01-21T05:21:16.011Z,7.03
2023-01-21T05:23:44.325Z,6.72
2023-01-21T05:26:11.877Z,6.32
2023-01-21T05:28:44.980Z,6.82
2023-01-21T05:31:13.004Z,6.65
2023-01-21T05:33:42.202Z,7.10
2023-01-21T05:36:10.410Z,7.53
2023-01-21T05:38:38.266Z,6.15
2023-01-21T05:41:05.926Z,6.72
2023-01-21T05:43:35.600Z,6.93
2023-01-21T05:46:03.066Z,6.07
2023-01-21T05:48:30.534Z,7.18
2023-01-21T05:50:58.422Z,6.28
2023-01-21T05:53:26.186Z,5.80
2023-01-21T05:55:56.757Z,6.00
2023-01-21T05:58:26.056Z,7.05
2023-01-21T06:00:53.523Z,6.18
2023-01-21T06:03:21.709Z,5.90
2023-01-21T06:05:49.725Z,5.65
2023-01-21T06:08:17.175Z,6.88
2023-01-21T06:10:45.933Z,7.45
2023-01-21T06:13:15.182Z,7.05
2023-01-21T06:15:46.662Z,6.40
2023-01-21T06:18:15.342Z,6.20
2023-01-21T06:20:44.717Z,6.95
2023-01-21T06:23:13.408Z,6.20
2023-01-21T06:25:43.788Z,6.13
2023-01-21T06:28:13.213Z,6.93
2023-01-21T06:30:49.070Z,8.00
2023-01-21T06:33:17.144Z,7.45
2023-01-21T06:35:46.735Z,5.97
2023-01-21T06:38:17.266Z,6.22
2023-01-21T06:40:46.815Z,7.20
2023-01-21T06:43:15.245Z,7.43
2023-01-21T06:45:48.555Z,7.70
2023-01-21T06:48:16.048Z,6.22
2023-01-21T06:50:47.696Z,8.27
2023-01-21T06:53:17.521Z,7.07
2023-01-21T06:55:48.535Z,6.22
2023-01-21T06:58:24.658Z,7.20
2023-01-21T07:00:54.122Z,6.55
2023-01-21T07:03:22.357Z,7.00
2023-01-21T07:05:49.659Z,5.57
2023-01-21T07:08:16.949Z,6.57
2023-01-21T07:10:52.940Z,6.63
2023-01-21T07:13:26.517Z,5.75
2023-01-21T07:16:00.839Z,7.57
2023-01-21T07:18:28.602Z,7.18
2023-01-21T07:20:58.041Z,6.80
2023-01-21T07:23:27.556Z,7.25
2023-01-21T07:26:03.693Z,6.70
2023-01-21T07:28:32.186Z,6.10
2023-01-21T07:31:00.476Z,6.93
2023-01-21T07:33:27.939Z,6.57
2023-01-21T07:35:55.468Z,6.85
2023-01-21T07:38:23.180Z,7.65
2023-01-21T07:40:51.257Z,7.07
2023-01-21T07:43:18.603Z,7.70
2023-01-21T07:45:46.139Z,8.93
2023-01-21T07:48:13.593Z,10.30
2023-01-21T07:50:40.857Z,9.68
2023-01-21T07:53:08.418Z,10.40
2023-01-21T07:55:36.165Z,12.45
2023-01-21T07:58:03.496Z,12.52
2023-01-21T08:00:30.813Z,11.82
2023-01-21T08:02:59.053Z,20.85
2023-01-21T08:05:26.897Z,17.77
2023-01-21T08:07:57.226Z,19.83
2023-01-21T08:10:24.636Z,21.48
2023-01-21T08:12:51.957Z,23.20
2023-01-21T08:15:19.722Z,22.90
2023-01-21T08:17:48.903Z,25.75
2023-01-21T08:20:16.258Z,21.98
2023-01-21T08:22:43.579Z,20.27
2023-01-21T08:25:11.861Z,20.23
2023-01-21T08:27:39.251Z,20.60
2023-01-21T08:30:06.926Z,15.68
2023-01-21T08:32:34.269Z,17.38
2023-01-21T08:35:01.903Z,15.98
2023-01-21T08:37:29.182Z,16.70
2023-01-21T08:39:56.481Z,15.25
2023-01-21T08:42:23.848Z,13.85
2023-01-21T08:44:51.439Z,13.55
2023-01-21T08:47:19.017Z,13.63
2023-01-21T08:49:46.273Z,15.25
2023-01-21T08:52:15.891Z,16.30
2023-01-21T08:54:43.467Z,15.15
2023-01-21T08:57:11.491Z,16.20
2023-01-21T08:59:38.867Z,15.43
2023-01-21T09:02:06.477Z,17.85
2023-01-21T09:04:33.782Z,18.58
2023-01-21T09:07:01.141Z,17.10
2023-01-21T09:09:28.464Z,15.07
2023-01-21T09:11:55.772Z,12.95
2023-01-21T09:14:23.129Z,13.85
2023-01-21T09:16:50.618Z,15.15
2023-01-21T09:19:18.302Z,14.98
2023-01-21T09:21:45.616Z,15.18
2023-01-21T09:24:12.911Z,15.15
2023-01-21T09:26:44.161Z,16.45
2023-01-21T09:29:11.849Z,14.35
2023-01-21T09:31:39.361Z,12.10
2023-01-21T09:34:06.756Z,12.68
2023-01-21T09:36:35.303Z,13.20
2023-01-21T09:39:02.718Z,12.35
2023-01-21T09:41:38.313Z,11.55
2023-01-21T09:44:11.746Z,13.52
2023-01-21T09:46:48.276Z,12.18
2023-01-21T09:49:18.689Z,12.27
2023-01-21T09:51:55.014Z,12.55
2023-01-21T09:54:26.994Z,11.48
2023-01-21T09:57:03.819Z,12.27
2023-01-21T09:59:54.403Z,10.00
2023-01-21T10:02:27.595Z,8.95
2023-01-21T10:05:07.173Z,9.98
2023-01-21T10:07:37.177Z,9.90
2023-01-21T10:10:09.763Z,10.60
2023-01-21T10:12:57.328Z,10.60
2023-01-21T10:15:43.502Z,9.82
2023-01-21T10:18:13.722Z,9.38
2023-01-21T10:20:50.927Z,11.20
2023-01-21T10:23:24.784Z,11.60
2023-01-21T10:25:52.300Z,12.80
2023-01-21T10:28:22.862Z,12.02
2023-01-21T10:30:54.883Z,11.20
2023-01-21T10:33:24.082Z,14.20
2023-01-21T10:36:03.678Z,12.18
2023-01-21T10:38:49.518Z,11.15
2023-01-21T10:41:36.372Z,11.82
2023-01-21T10:44:10.201Z,14.60
2023-01-21T10:46:37.745Z,14.13
2023-01-21T10:49:14.086Z,11.18
2023-01-21T10:51:49.248Z,11.88
2023-01-21T10:54:27.267Z,11.15
2023-01-21T10:57:00.772Z,11.93
2023-01-21T10:59:31.602Z,10.38
2023-01-21T11:02:06.474Z,10.63
2023-01-21T11:04:34.580Z,11.25
2023-01-21T11:07:03.625Z,6.32
2023-01-21T11:09:32.817Z,6.85
2023-01-21T11:12:01.092Z,5.75
2023-01-21T11:14:28.548Z,4.28
2023-01-21T11:16:56.303Z,3.90
2023-01-21T11:19:26.036Z,4.20
2023-01-21T11:22:12.108Z,3.65
2023-01-21T11:24:43.916Z,3.03
2023-01-21T11:27:35.510Z,3.33
2023-01-21T11:30:02.956Z,2.70
2023-01-21T11:32:31.697Z,3.33
2023-01-21T11:35:04.810Z,2.78
2023-01-21T11:37:33.688Z,3.85
2023-01-21T11:40:03.111Z,3.42
2023-01-21T11:42:30.509Z,3.53
2023-01-21T11:45:06.455Z,3.08
2023-01-21T11:47:46.200Z,4.35
2023-01-21T11:50:23.804Z,4.13
2023-01-21T11:53:17.825Z,3.60
2023-01-21T11:55:53.338Z,5.93
2023-01-21T11:58:23.875Z,4.18
2023-01-21T12:00:55.249Z,3.25
2023-01-21T12:03:25.436Z,2.88
2023-01-21T12:05:54.080Z,3.70
2023-01-21T12:08:25.102Z,3.25
2023-01-21T12:10:53.732Z,3.85
2023-01-21T12:13:33.602Z,3.72
2023-01-21T12:16:10.449Z,3.78
2023-01-21T12:18:37.760Z,3.55
2023-01-21T12:21:06.229Z,3.72
2023-01-21T12:23:51.087Z,4.35
2023-01-21T12:26:28.005Z,4.43
2023-01-21T12:29:14.337Z,3.97
2023-01-21T12:31:44.892Z,4.30
2023-01-21T12:34:12.954Z,5.00
2023-01-21T12:36:43.596Z,5.50
2023-01-21T12:39:10.983Z,4.38
2023-01-21T12:41:39.104Z,4.65
2023-01-21T12:44:25.336Z,5.35
2023-01-21T12:46:55.810Z,5.10
2023-01-21T12:49:46.874Z,5.63
2023-01-21T12:52:31.023Z,4.18
2023-01-21T12:55:03.158Z,5.32
2023-01-21T12:57:42.195Z,4.95
2023-01-21T13:00:24.175Z,5.53
2023-01-21T13:02:56.613Z,4.70
2023-01-21T13:05:30.749Z,5.05
2023-01-21T13:08:21.471Z,6.40
2023-01-21T13:10:51.642Z,5.55
2023-01-21T13:13:18.947Z,5.90
2023-01-21T13:15:48.560Z,6.78
2023-01-21T13:18:38.649Z,6.13
2023-01-21T13:21:21.371Z,4.85
2023-01-21T13:23:54.208Z,6.88
2023-01-21T13:26:39.063Z,7.10
2023-01-21T13:29:12.574Z,7.07
2023-01-21T13:31:44.242Z,5.78
2023-01-21T13:34:23.555Z,6.50
2023-01-21T13:37:09.271Z,5.72
2023-01-21T13:42:03.956Z,5.80
2023-01-21T13:44:31.314Z,5.90
2023-01-21T13:46:58.647Z,7.75
2023-01-21T13:49:55.992Z,7.68
2023-01-21T13:52:29.431Z,7.20
2023-01-21T13:55:03.155Z,8.07
2023-01-21T13:57:42.377Z,7.50
2023-01-21T14:00:13.059Z,8.05
2023-01-21T14:02:57.394Z,8.93
2023-01-21T14:05:32.053Z,6.60
2023-01-21T14:08:11.630Z,7.90
2023-01-21T14:11:11.459Z,4.50
2023-01-21T14:13:38.799Z,4.20
2023-01-21T14:16:25.127Z,4.03
2023-01-21T14:19:11.434Z,4.30
2023-01-21T14:21:41.793Z,4.07
2023-01-21T14:24:09.084Z,4.35
2023-01-21T14:26:52.701Z,5.25
2023-01-21T14:29:26.701Z,5.95
2023-01-21T14:32:14.027Z,6.70
2023-01-21T14:34:45.714Z,6.80
2023-01-21T14:37:23.750Z,7.40
2023-01-21T14:39:54.023Z,9.10
2023-01-21T14:42:26.532Z,9.32
2023-01-21T14:44:53.889Z,10.25
2023-01-21T14:47:50.850Z,9.68
2023-01-21T14:50:36.699Z,8.73
2023-01-21T14:53:11.101Z,7.55
2023-01-21T14:55:38.659Z,6.73
2023-01-21T14:58:06.326Z,8.85
2023-01-21T15:00:35.224Z,8.60
2023-01-21T15:03:21.542Z,6.20
2023-01-21T15:05:52.883Z,5.43
2023-01-21T15:08:45.428Z,5.55
2023-01-21T15:11:35.277Z,5.07
2023-01-21T15:14:22.894Z,5.80
2023-01-21T15:16:50.492Z,6.65
2023-01-21T15:19:24.205Z,6.03
2023-01-21T15:22:12.441Z,6.53
2023-01-21T15:25:03.235Z,5.07
2023-01-21T15:27:32.981Z,5.10
2023-01-21T15:30:03.466Z,5.15
2023-01-21T15:32:34.655Z,4.93
2023-01-21T15:35:04.350Z,5.72
2023-01-21T15:37:33.040Z,5.35
2023-01-21T15:40:01.928Z,5.25
2023-01-21T15:42:44.635Z,5.40
2023-01-21T15:45:15.255Z,5.80
2023-01-21T15:48:01.875Z,6.07
2023-01-21T15:50:31.541Z,5.05
2023-01-21T15:53:22.419Z,6.93
2023-01-21T15:55:50.053Z,9.23
2023-01-21T15:58:23.446Z,7.32
2023-01-21T16:01:05.879Z,5.13
2023-01-21T16:03:36.199Z,4.53
2023-01-21T16:06:08.625Z,6.25
2023-01-21T16:08:51.464Z,6.32
2023-01-21T16:11:29.020Z,7.07
2023-01-21T16:14:15.273Z,5.45
2023-01-21T16:17:08.565Z,7.18
2023-01-21T16:19:38.114Z,5.40
2023-01-21T16:22:07.767Z,5.57
2023-01-21T16:24:38.902Z,4.93
2023-01-21T16:27:26.171Z,5.30
2023-01-21T16:30:00.710Z,5.43
2023-01-21T16:32:28.580Z,6.15
2023-01-21T16:34:55.832Z,5.60
2023-01-21T16:37:27.584Z,6.35
2023-01-21T16:39:55.979Z,5.30
2023-01-21T16:42:25.468Z,5.85
2023-01-21T16:44:53.444Z,5.45
2023-01-21T16:47:34.580Z,5.72
2023-01-21T16:50:02.064Z,3.55
2023-01-21T16:52:30.164Z,6.53
2023-01-21T16:54:57.594Z,5.82
2023-01-21T16:57:31.867Z,7.50
2023-01-21T17:00:02.625Z,5.97
2023-01-21T17:02:34.611Z,6.35
2023-01-21T17:05:05.314Z,5.95
2023-01-21T17:07:32.708Z,6.13
2023-01-21T17:10:05.910Z,6.22
2023-01-21T17:12:36.111Z,5.00
2023-01-21T17:15:09.222Z,4.97
2023-01-21T17:17:37.105Z,5.18
2023-01-21T17:20:04.632Z,4.72
2023-01-21T17:22:34.650Z,5.70
2023-01-21T17:25:23.285Z,4.70
2023-01-21T17:27:50.578Z,5.30
2023-01-21T17:30:29.143Z,4.40
2023-01-21T17:33:00.526Z,4.40
2023-01-21T17:35:28.873Z,4.60
2023-01-21T17:38:03.336Z,3.78
2023-01-21T17:40:30.711Z,4.57
2023-01-21T17:42:59.110Z,4.88
2023-01-21T17:45:26.442Z,4.32
2023-01-21T17:48:08.771Z,5.43
2023-01-21T17:50:37.931Z,4.90
2023-01-21T17:53:07.471Z,3.58
2023-01-21T17:55:39.152Z,4.35
2023-01-21T17:58:26.417Z,4.22
2023-01-21T18:00:53.812Z,5.00
2023-01-21T18:03:21.170Z,4.20
2023-01-21T18:05:49.349Z,4.90
2023-01-21T18:08:17.715Z,4.20
2023-01-21T18:10:46.088Z,4.85
2023-01-21T18:13:17.498Z,4.95
2023-01-21T18:15:46.366Z,5.68
2023-01-21T18:18:16.770Z,5.22
2023-01-21T18:20:44.393Z,5.15
2023-01-21T18:23:12.196Z,5.63
2023-01-21T18:25:42.619Z,8.57
2023-01-21T18:28:20.302Z,5.97
2023-01-21T18:30:48.146Z,5.97
2023-01-21T18:33:15.641Z,5.20
2023-01-21T18:35:44.633Z,5.13
2023-01-21T18:38:12.972Z,5.40
2023-01-21T18:40:40.999Z,5.30
2023-01-21T18:43:08.418Z,5.25
2023-01-21T18:45:35.768Z,6.03
2023-01-21T18:48:03.328Z,6.45
2023-01-21T18:50:31.288Z,4.47
2023-01-21T18:52:58.576Z,4.03
2023-01-21T18:55:30.007Z,3.83
2023-01-21T18:57:58.190Z,3.60
2023-01-21T19:00:27.231Z,4.68
2023-01-21T19:02:55.132Z,3.80
2023-01-21T19:05:23.008Z,5.00
2023-01-21T19:07:50.721Z,3.50
2023-01-21T19:10:20.023Z,4.22
2023-01-21T19:12:48.001Z,4.22
2023-01-21T19:15:19.921Z,3.65
2023-01-21T19:17:47.328Z,3.63
2023-01-21T19:20:20.704Z,3.88
2023-01-21T19:22:48.181Z,6.03
2023-01-21T19:25:15.646Z,4.30
2023-01-21T19:27:44.294Z,3.85
2023-01-21T19:30:25.029Z,4.40
2023-01-21T19:32:53.486Z,4.32
2023-01-21T19:35:22.510Z,4.60
2023-01-21T19:37:50.030Z,5.50
2023-01-21T19:40:19.644Z,5.07
2023-01-21T19:42:47.505Z,5.70
2023-01-21T19:45:15.657Z,5.22
2023-01-21T19:47:44.901Z,4.28
2023-01-21T19:50:14.216Z,5.63
2023-01-21T19:52:41.542Z,6.18
2023-01-21T19:55:10.024Z,4.70
2023-01-21T19:57:38.481Z,3.28
2023-01-21T20:00:14.361Z,3.70
2023-01-21T20:02:41.788Z,3.42
2023-01-21T20:05:09.387Z,3.90
2023-01-21T20:07:37.311Z,4.35
2023-01-21T20:10:17.855Z,3.90
2023-01-21T20:12:45.427Z,3.63
2023-01-21T20:15:13.807Z,3.50
2023-01-21T20:17:42.722Z,3.63
2023-01-21T20:20:20.815Z,3.15
2023-01-21T20:22:48.365Z,3.45
2023-01-21T20:25:17.589Z,3.58
2023-01-21T20:27:47.292Z,4.20
2023-01-21T20:30:18.741Z,5.13
2023-01-21T20:32:47.060Z,4.18
2023-01-21T20:35:16.105Z,2.60
2023-01-21T20:37:49.145Z,4.15
2023-01-21T20:40:19.416Z,3.55
2023-01-21T20:42:47.562Z,3.00
2023-01-21T20:45:16.110Z,2.28
2023-01-21T20:47:50.179Z,1.30
2023-01-21T20:50:22.583Z,1.02
2023-01-21T20:52:50.402Z,1.10
2023-01-21T20:55:21.424Z,0.98
2023-01-21T20:57:49.280Z,1.30
2023-01-21T21:00:17.067Z,1.20
2023-01-21T21:02:44.648Z,1.30
2023-01-21T21:05:12.713Z,1.00
2023-01-21T21:07:40.232Z,1.05
2023-01-21T21:10:08.497Z,1.08
2023-01-21T21:12:35.924Z,1.33
2023-01-21T21:15:03.319Z,0.80
2023-01-21T21:17:30.664Z,0.65
2023-01-21T21:19:58.029Z,0.90
2023-01-21T21:22:25.543Z,0.90
2023-01-21T21:24:54.681Z,0.90
2023-01-21T21:27:22.100Z,0.80
2023-01-21T21:29:49.575Z,1.08
2023-01-21T21:32:17.005Z,1.50
2023-01-21T21:34:44.424Z,1.38
2023-01-21T21:37:13.161Z,0.90
2023-01-21T21:39:40.844Z,1.08
2023-01-21T21:42:28.758Z,1.05
2023-01-21T21:44:56.199Z,1.50
2023-01-21T21:47:42.218Z,1.25
2023-01-21T21:50:11.932Z,0.98
2023-01-21T21:52:39.652Z,1.10
2023-01-21T21:55:10.601Z,1.23
2023-01-21T21:57:37.976Z,1.23
2023-01-21T22:00:05.950Z,1.10
2023-01-21T22:02:33.415Z,0.80
2023-01-21T22:05:00.844Z,0.82
2023-01-21T22:07:28.339Z,0.95
2023-01-21T22:09:55.656Z,1.10
2023-01-21T22:12:23.042Z,1.02
2023-01-21T22:14:50.501Z,1.30
2023-01-21T22:17:17.878Z,0.80
2023-01-21T22:19:45.192Z,0.73
2023-01-21T22:22:12.468Z,1.10
2023-01-21T22:24:40.110Z,0.80
2023-01-21T22:27:08.556Z,0.47
2023-01-21T22:29:35.939Z,0.93
2023-01-21T22:32:04.039Z,1.67
2023-01-21T22:34:31.551Z,1.95
2023-01-21T22:36:59.016Z,1.50
2023-01-21T22:39:26.325Z,0.30
2023-01-21T22:41:55.563Z,0.93
2023-01-21T22:44:22.917Z,1.05
2023-01-21T22:46:50.612Z,0.82
2023-01-21T22:49:18.029Z,1.67
2023-01-21T22:51:45.405Z,2.22
2023-01-21T22:54:12.806Z,0.93
2023-01-21T22:56:52.110Z,1.00
2023-01-21T22:59:20.119Z,1.33
2023-01-21T23:01:48.936Z,0.65
2023-01-21T23:04:17.521Z,0.60
2023-01-21T23:06:45.029Z,1.40
2023-01-21T23:09:16.188Z,0.63
2023-01-21T23:11:45.367Z,0.50
2023-01-21T23:14:13.095Z,0.60
2023-01-21T23:16:40.667Z,0.60
2023-01-21T23:19:08.028Z,0.60
2023-01-21T23:21:37.730Z,0.80
2023-01-21T23:24:05.570Z,0.63
2023-01-21T23:26:33.004Z,0.82
2023-01-21T23:29:00.322Z,0.73
2023-01-21T23:31:27.847Z,1.00
2023-01-21T23:33:56.439Z,1.00
2023-01-21T23:36:24.012Z,0.82
2023-01-21T23:38:51.343Z,0.88
2023-01-21T23:41:20.024Z,0.90
2023-01-21T23:43:47.535Z,1.00
2023-01-21T23:46:16.777Z,0.80
2023-01-21T23:48:44.148Z,1.15
2023-01-21T23:51:13.000Z,0.80
2023-01-21T23:53:40.428Z,0.70
2023-01-21T23:56:09.554Z,0.52
2023-01-21T23:58:36.861Z,0.77
